X  Κλείσε Στοιχεία αεροπορικών μετεωρολογικών δεδομένων METAR     LFQQ Lille-Lesquin Airport
θερμοκρασία
11°C θερμοκρασία
5°C Σημείο δρόσου
67% Υγρασία



Ανεμος
11 KM/H
7 MPH
3 M/S
6 KTS



270°
Dytiká
Τρέχουσες συνθήκες

Σαφή Σαφή
πίεση 1020.92 (hPa) - 30.15 (inHg)
Ορατότητα 6.2 (μίλι) - 10 (km)
Aεροδρόμιο
Κωδικός αεροδρομίου LFQQ

Τοποθεσία: Lille-Lesquin Airport
Απόσταση: 15 (km)

Metar:
LFQQ 191000Z AUTO 27006KT 230V320 CAVOK 11/05 Q1021 NOSIG

ώρα: 19-04-2021 12:00 CEST